Time;durP1;ratioP1;P1;durP2;ratioP2;P2;SDS_P1;SDS_P2;PMS_P1;PMS_P2;Temp;Humidity;BMP_temperature;BMP_pressure;BME280_temperature;BME280_humidity;BME280_pressure;Samples;Min_cycle;Max_cycle;Signal;HPM_P1;HPM_P2
2021/12/28 00:01:00;;;;;;;55.40;25.83;;;9.10;99.90;;;9.20;100.00;99214.09;5098124;28;20404;-72
2021/12/28 00:03:30;;;;;;;57.65;24.23;;;9.20;99.90;;;9.25;100.00;99209.59;5116405;28;20122;-73
2021/12/28 00:06:00;;;;;;;50.88;23.25;;;9.20;99.90;;;9.16;100.00;99223.88;5098088;28;20048;-74
2021/12/28 00:08:29;;;;;;;68.93;26.92;;;9.20;99.90;;;9.30;100.00;99210.31;5116343;28;20067;-73
2021/12/28 00:10:58;;;;;;;54.72;24.17;;;9.30;99.90;;;9.26;100.00;99206.03;5116714;28;20458;-73
2021/12/28 00:13:30;;;;;;;56.30;24.90;;;9.20;99.90;;;9.24;100.00;99208.72;5116422;28;20043;-73
2021/12/28 00:16:28;;;;;;;64.95;25.15;;;9.20;99.90;;;9.24;100.00;99198.16;5115926;28;20463;-73
2021/12/28 00:19:00;;;;;;;66.53;25.63;;;9.20;99.90;;;9.22;100.00;99197.34;5116039;28;20447;-73
2021/12/28 00:21:29;;;;;;;47.45;22.05;;;9.30;99.90;;;9.03;100.00;99174.97;5115696;28;20039;-73
2021/12/28 00:24:01;;;;;;;54.45;24.85;;;9.20;99.90;;;9.19;100.00;99199.19;5116087;28;20142;-73
2021/12/28 00:26:30;;;;;;;63.53;24.77;;;9.20;99.90;;;9.13;100.00;99194.06;5115829;28;20050;-73
2021/12/28 00:28:58;;;;;;;60.10;24.35;;;9.20;99.90;;;9.19;100.00;99200.06;5115586;28;20100;-73
2021/12/28 00:31:27;;;;;;;52.53;23.58;;;9.20;99.90;;;9.18;100.00;99203.59;5097529;28;20079;-74
2021/12/28 00:33:58;;;;;;;54.70;22.38;;;9.20;99.90;;;9.17;100.00;99199.25;5115688;28;20040;-72
2021/12/28 00:36:28;;;;;;;52.35;23.67;;;9.10;99.90;;;9.15;100.00;99195.78;5097561;28;20078;-73
2021/12/28 00:38:56;;;;;;;58.88;22.30;;;9.10;99.90;;;9.12;100.00;99198.47;5115872;28;20130;-72
2021/12/28 00:41:25;;;;;;;52.45;21.60;;;9.10;99.90;;;9.10;100.00;99193.25;5115507;28;20508;-73
2021/12/28 00:43:54;;;;;;;54.03;20.92;;;9.00;99.90;;;8.97;100.00;99188.31;5115653;28;20404;-73
2021/12/28 00:46:22;;;;;;;44.15;20.15;;;9.00;99.90;;;8.96;100.00;99187.44;5115433;28;20070;-73
2021/12/28 00:48:51;;;;;;;58.08;20.17;;;8.90;99.90;;;8.79;100.00;99163.28;5097508;28;20040;-73
2021/12/28 00:51:19;;;;;;;48.53;20.50;;;8.90;99.90;;;8.93;100.00;99174.34;5114399;28;20532;-73
2021/12/28 00:53:49;;;;;;;52.30;20.35;;;8.90;99.90;;;8.95;100.00;99171.66;5115434;28;20089;-73
2021/12/28 00:56:17;;;;;;;57.85;19.73;;;8.80;99.90;;;8.86;100.00;99154.34;5115466;28;20035;-73
2021/12/28 00:58:46;;;;;;;53.92;20.73;;;8.80;99.90;;;8.89;100.00;99169.19;5115184;28;20055;-73
2021/12/28 01:01:14;;;;;;;49.45;20.02;;;8.80;99.90;;;8.87;100.00;99166.59;5115583;28;20112;-74
2021/12/28 01:03:43;;;;;;;57.42;19.45;;;8.80;99.90;;;8.38;100.00;99080.88;5115130;28;20156;-73
2021/12/28 01:06:11;;;;;;;53.70;19.00;;;8.80;99.90;;;8.86;100.00;99156.97;5115161;28;20036;-73
2021/12/28 01:08:40;;;;;;;56.75;18.60;;;8.80;99.90;;;8.87;100.00;99150.78;5115506;28;20136;-75
2021/12/28 01:11:10;;;;;;;54.40;17.95;;;8.80;99.90;;;8.87;100.00;99152.53;5114885;28;20393;-73
2021/12/28 01:13:38;;;;;;;56.45;17.45;;;8.80;99.90;;;8.75;100.00;99134.41;5114703;28;20040;-73
2021/12/28 01:16:08;;;;;;;44.88;16.88;;;8.80;99.90;;;8.87;100.00;99142.00;5114708;28;20079;-73
2021/12/28 01:18:37;;;;;;;52.67;15.95;;;8.90;99.90;;;9.00;100.00;99159.25;5114515;28;20087;-73
2021/12/28 01:21:05;;;;;;;54.30;17.52;;;8.90;99.90;;;9.04;100.00;99143.28;5096183;28;20036;-73
2021/12/28 01:23:34;;;;;;;51.55;15.10;;;9.00;99.90;;;9.10;100.00;99152.81;5114670;28;20089;-73
2021/12/28 01:26:03;;;;;;;53.45;16.80;;;9.00;99.90;;;9.06;100.00;99151.16;5114829;28;20044;-73
2021/12/28 01:28:33;;;;;;;49.63;14.35;;;9.10;99.90;;;9.13;100.00;99150.13;5114299;28;20044;-72
2021/12/28 01:31:01;;;;;;;45.15;15.15;;;9.10;99.90;;;8.47;100.00;99025.34;5114719;28;20105;-73
2021/12/28 01:33:30;;;;;;;52.83;13.82;;;9.10;99.90;;;9.09;100.00;99151.97;5096045;28;20069;-73
2021/12/28 01:35:59;;;;;;;55.30;14.30;;;9.10;99.90;;;9.07;100.00;99123.91;5114133;28;20051;-73
2021/12/28 01:38:28;;;;;;;56.33;12.88;;;9.20;99.90;;;9.29;100.00;99151.41;5114110;28;20523;-74
2021/12/28 01:40:56;;;;;;;50.10;12.98;;;9.20;99.90;;;9.39;100.00;99154.69;5114299;28;20050;-73
2021/12/28 01:43:25;;;;;;;54.25;14.23;;;9.30;99.90;;;9.25;100.00;99149.78;5114362;28;20255;-73
2021/12/28 01:45:59;;;;;;;57.00;12.93;;;9.30;99.90;;;9.28;100.00;99125.09;5115074;28;20047;-74
2021/12/28 01:48:32;;;;;;;51.92;13.15;;;9.40;99.90;;;9.42;100.00;99158.13;5114274;28;20067;-73
2021/12/28 01:51:06;;;;;;;49.45;12.57;;;9.40;99.90;;;9.37;100.00;99143.31;5095774;28;20040;-73
2021/12/28 01:53:36;;;;;;;52.13;12.77;;;9.40;99.90;;;9.52;100.00;99162.25;5113701;28;20052;-73
2021/12/28 01:56:08;;;;;;;48.10;12.95;;;9.40;99.90;;;9.41;100.00;99144.94;5114210;28;20066;-74
2021/12/28 01:58:37;;;;;;;57.20;12.82;;;9.40;99.90;;;9.52;100.00;99150.81;5113477;28;20044;-73
2021/12/28 02:01:09;;;;;;;49.63;12.05;;;9.50;99.90;;;9.60;100.00;99160.22;5095413;28;20085;-73
2021/12/28 02:03:40;;;;;;;58.55;13.32;;;9.50;99.90;;;9.52;100.00;99151.69;5113322;28;20052;-73
2021/12/28 02:06:10;;;;;;;58.72;12.45;;;9.50;99.90;;;9.50;100.00;99158.78;5113312;28;20059;-73
2021/12/28 02:08:40;;;;;;;59.13;12.55;;;9.50;99.90;;;9.54;100.00;99160.38;5113376;28;20396;-75
2021/12/28 02:11:11;;;;;;;47.47;12.40;;;9.50;99.90;;;9.56;100.00;99155.94;5113693;28;20039;-73
2021/12/28 02:13:40;;;;;;;52.25;13.35;;;9.50;99.90;;;9.57;100.00;99157.69;5114189;28;20069;-73
2021/12/28 02:16:17;;;;;;;61.60;12.43;;;9.50;99.90;;;9.47;100.00;99148.28;5095879;28;20147;-73
2021/12/28 02:18:46;;;;;;;58.42;14.05;;;9.50;99.90;;;9.51;100.00;99152.56;5113642;28;20039;-73
2021/12/28 02:21:16;;;;;;;60.80;13.15;;;9.50;99.90;;;9.57;100.00;99139.22;5114001;28;20123;-73
2021/12/28 02:23:44;;;;;;;59.63;12.97;;;9.50;99.90;;;9.68;100.00;99155.59;5113734;28;20043;-73
2021/12/28 02:26:12;;;;;;;53.50;12.13;;;9.60;99.90;;;9.06;100.00;99040.41;5113236;28;20368;-74
2021/12/28 02:28:41;;;;;;;53.88;12.05;;;9.60;99.90;;;9.64;100.00;99147.84;5113548;28;20160;-73
2021/12/28 02:31:09;;;;;;;56.28;11.70;;;9.60;99.90;;;9.69;100.00;99143.28;5113905;28;20066;-73
2021/12/28 02:33:39;;;;;;;58.58;11.77;;;9.60;99.90;;;9.68;100.00;99137.13;5112952;28;20052;-74
2021/12/28 02:36:08;;;;;;;42.47;11.63;;;9.60;99.90;;;9.65;100.00;99136.34;5113242;28;20039;-74
2021/12/28 02:38:39;;;;;;;72.53;13.65;;;9.60;99.90;;;9.69;100.00;99138.00;5112912;28;20097;-73
2021/12/28 02:41:09;;;;;;;57.22;11.73;;;9.60;99.90;;;9.76;100.00;99137.78;5113439;28;20089;-73
2021/12/28 02:43:38;;;;;;;61.08;12.40;;;9.70;99.90;;;9.71;100.00;99133.53;5113273;28;20072;-73
2021/12/28 02:46:10;;;;;;;51.00;11.77;;;9.70;99.90;;;9.70;100.00;99145.88;5095191;28;20051;-74
2021/12/28 02:48:41;;;;;;;61.80;12.55;;;9.70;99.90;;;9.77;100.00;99133.38;5095128;28;20039;-73
2021/12/28 02:51:13;;;;;;;58.53;11.45;;;9.70;99.90;;;9.74;100.00;99136.06;5112880;28;20419;-74
2021/12/28 02:53:45;;;;;;;62.75;13.23;;;9.70;99.90;;;9.68;100.00;99121.28;5113109;28;20441;-73
2021/12/28 02:56:16;;;;;;;55.95;12.32;;;9.70;99.90;;;9.81;100.00;99127.94;5113002;28;20051;-73
2021/12/28 02:58:47;;;;;;;61.40;11.93;;;9.70;99.90;;;9.78;100.00;99130.69;5112607;28;20105;-74
2021/12/28 03:01:20;;;;;;;59.38;12.30;;;9.70;99.90;;;9.16;100.00;99018.16;5112783;28;20069;-73
2021/12/28 03:03:53;;;;;;;58.15;12.13;;;9.70;99.90;;;9.89;100.00;99128.56;5094938;28;20066;-73
2021/12/28 03:06:24;;;;;;;48.50;11.25;;;9.80;99.90;;;9.87;100.00;99124.28;5112972;28;20051;-74
2021/12/28 03:08:57;;;;;;;59.67;12.23;;;9.80;99.90;;;9.72;100.00;99091.25;5112738;28;20048;-73
2021/12/28 03:11:28;;;;;;;48.83;11.80;;;9.80;99.90;;;9.80;100.00;99104.22;5095037;28;20094;-73
2021/12/28 03:14:00;;;;;;;56.05;12.63;;;9.90;99.90;;;9.89;100.00;99104.81;5112229;28;20092;-73
2021/12/28 03:16:32;;;;;;;70.95;14.77;;;9.90;99.90;;;9.91;100.00;99116.19;5112532;28;20035;-73
2021/12/28 03:19:01;;;;;;;63.20;14.45;;;9.90;99.90;;;9.97;100.00;99115.13;5112709;28;20044;-73
2021/12/28 03:21:30;;;;;;;65.40;13.20;;;9.90;99.90;;;10.04;100.00;99104.34;5112562;28;20408;-73
2021/12/28 03:24:00;;;;;;;61.60;13.55;;;10.00;99.90;;;9.97;100.00;99086.97;5112457;28;20349;-72
2021/12/28 03:26:29;;;;;;;55.05;12.13;;;9.90;99.90;;;9.88;100.00;99099.59;5112277;28;20051;-73
2021/12/28 03:28:57;;;;;;;54.72;12.13;;;9.80;99.90;;;9.82;100.00;99083.91;5094291;28;20058;-73
2021/12/28 03:31:26;;;;;;;46.30;11.55;;;9.80;99.90;;;9.81;100.00;99067.22;5112225;28;20393;-72
2021/12/28 03:33:56;;;;;;;57.10;13.00;;;9.80;99.90;;;10.01;100.00;99096.53;5112148;28;20043;-73
2021/12/28 03:36:28;;;;;;;55.63;14.43;;;9.90;99.90;;;10.05;100.00;99081.44;5112583;28;20044;-72
2021/12/28 03:38:58;;;;;;;42.78;11.52;;;10.00;99.90;;;9.90;100.00;99082.78;5112701;28;20044;-73
2021/12/28 03:41:31;;;;;;;41.47;12.30;;;9.90;99.90;;;9.93;100.00;99069.47;5112708;28;20047;-72
2021/12/28 03:44:00;;;;;;;50.53;12.35;;;9.90;99.90;;;9.99;100.00;99081.63;5112366;28;20758;-73
2021/12/28 03:46:30;;;;;;;51.83;13.25;;;9.90;99.90;;;9.93;100.00;99069.47;5112289;28;20056;-72
2021/12/28 03:49:00;;;;;;;54.67;12.75;;;9.90;99.90;;;10.02;100.00;99079.78;5112430;28;20476;-73
2021/12/28 03:51:29;;;;;;;46.25;13.85;;;9.90;99.90;;;9.96;100.00;99064.13;5112498;28;20047;-74
2021/12/28 03:53:58;;;;;;;51.53;13.38;;;9.90;99.90;;;10.01;100.00;99062.19;5093963;28;20810;-72
2021/12/28 03:56:28;;;;;;;46.38;12.15;;;9.90;99.90;;;10.06;100.00;99072.63;5094125;28;20478;-72
2021/12/28 03:58:56;;;;;;;46.25;14.52;;;10.00;99.90;;;10.13;100.00;99071.53;5112087;28;20056;-72
2021/12/28 04:01:27;;;;;;;53.78;14.00;;;10.00;99.90;;;10.12;100.00;99047.81;5112442;28;20463;-73
2021/12/28 04:03:56;;;;;;;62.58;15.20;;;10.10;99.90;;;10.13;100.00;99049.53;5112571;28;20462;-73
2021/12/28 04:06:25;;;;;;;54.60;14.75;;;10.10;99.90;;;10.26;100.00;99069.38;5112129;28;20421;-74
2021/12/28 04:08:56;;;;;;;57.83;14.68;;;10.20;99.90;;;10.24;100.00;99060.66;5112118;28;20404;-73
2021/12/28 04:11:27;;;;;;;51.95;13.43;;;10.20;99.90;;;10.10;100.00;99066.38;5093677;28;20052;-73
2021/12/28 04:14:03;;;;;;;44.85;12.77;;;10.10;99.90;;;10.21;100.00;99074.81;5111769;28;20138;-72
2021/12/28 04:16:33;;;;;;;49.58;13.85;;;10.10;99.90;;;10.20;100.00;99053.72;5093780;28;20109;-73
2021/12/28 04:19:03;;;;;;;49.25;13.23;;;10.10;99.90;;;10.14;100.00;99064.50;5093606;28;20484;-73
2021/12/28 04:21:33;;;;;;;48.10;13.70;;;10.10;99.90;;;10.18;100.00;99055.56;5111824;28;20062;-72
2021/12/28 04:24:02;;;;;;;57.55;14.77;;;10.10;99.90;;;10.21;100.00;99063.38;5111799;28;20043;-73
2021/12/28 04:26:30;;;;;;;58.20;14.05;;;10.20;99.90;;;10.33;100.00;99048.00;5114084;28;20073;-72
2021/12/28 04:29:00;;;;;;;51.85;13.73;;;10.30;99.90;;;10.26;100.00;99059.66;5116011;28;20055;-73
2021/12/28 04:31:28;;;;;;;46.23;13.50;;;10.20;99.90;;;10.29;100.00;99054.28;5115446;28;20039;-72
2021/12/28 04:33:57;;;;;;;54.47;14.40;;;10.30;99.90;;;10.43;100.00;99059.97;5115628;28;20329;-73
2021/12/28 04:36:30;;;;;;;53.95;13.82;;;10.40;99.90;;;10.43;100.00;99051.19;5097335;28;20048;-72
2021/12/28 04:38:59;;;;;;;48.47;14.05;;;10.40;99.90;;;10.32;100.00;99025.13;5115438;28;20047;-72
2021/12/28 04:41:28;;;;;;;56.90;14.80;;;10.40;99.90;;;10.54;100.00;99039.34;5097730;28;20052;-72
2021/12/28 04:43:59;;;;;;;51.30;14.00;;;10.50;99.90;;;10.49;100.00;99054.47;5115264;28;20427;-72
2021/12/28 04:46:31;;;;;;;43.05;14.45;;;10.50;99.90;;;10.52;100.00;99040.31;5115167;28;20058;-73
2021/12/28 04:49:00;;;;;;;45.78;13.88;;;10.50;99.90;;;10.48;100.00;99039.56;5115137;28;20039;-72
2021/12/28 04:51:28;;;;;;;43.42;14.52;;;10.50;99.90;;;10.47;100.00;99039.63;5114913;28;20055;-73
2021/12/28 04:53:59;;;;;;;40.25;14.70;;;10.50;99.90;;;10.53;100.00;99039.41;5114992;28;20107;-72
2021/12/28 04:56:28;;;;;;;44.33;15.18;;;10.50;99.90;;;10.52;100.00;99032.38;5097065;28;20055;-72
2021/12/28 04:58:56;;;;;;;40.70;14.85;;;10.50;99.90;;;10.54;100.00;99019.97;5114877;28;20592;-72
2021/12/28 05:01:25;;;;;;;41.53;14.95;;;10.50;99.90;;;10.71;100.00;99020.25;5115218;28;20051;-72
2021/12/28 05:03:54;;;;;;;48.55;16.42;;;10.60;99.90;;;10.74;100.00;99023.66;5114994;28;20047;-72
2021/12/28 05:06:23;;;;;;;43.22;16.15;;;10.70;99.90;;;10.60;100.00;99025.06;5115303;28;20408;-72
2021/12/28 05:08:52;;;;;;;43.92;16.38;;;10.60;99.90;;;10.70;100.00;99024.69;5115052;28;20457;-72
2021/12/28 05:11:20;;;;;;;46.45;16.45;;;10.70;99.90;;;10.66;100.00;99036.31;5114842;28;20108;-73
2021/12/28 05:13:49;;;;;;;45.15;16.17;;;10.60;99.90;;;10.69;100.00;99024.75;5115003;28;20036;-72
2021/12/28 05:16:17;;;;;;;37.30;16.00;;;10.70;99.90;;;10.68;100.00;99018.56;5114807;28;20056;-73
2021/12/28 05:18:45;;;;;;;43.80;15.15;;;10.70;99.90;;;10.69;100.00;99020.31;5096199;28;20044;-72
2021/12/28 05:21:15;;;;;;;43.17;16.17;;;10.70;99.90;;;10.66;100.00;99011.63;5096430;28;20159;-72
2021/12/28 05:23:44;;;;;;;37.37;14.73;;;10.70;99.90;;;10.57;100.00;99015.44;5114855;28;20067;-73
2021/12/28 05:26:12;;;;;;;40.58;14.68;;;10.60;99.90;;;10.67;100.00;99016.00;5114674;28;20490;-73
2021/12/28 05:28:41;;;;;;;39.10;15.35;;;10.60;99.90;;;10.61;100.00;99001.22;5114615;28;20154;-73
2021/12/28 05:31:09;;;;;;;32.65;14.52;;;10.60;99.90;;;10.64;100.00;99019.63;5114508;28;20442;-72
2021/12/28 05:33:38;;;;;;;29.08;14.15;;;10.60;99.90;;;10.63;100.00;98998.50;5114213;28;20036;-73
2021/12/28 05:36:07;;;;;;;37.80;16.10;;;10.70;99.90;;;10.67;100.00;99003.66;5114155;28;20071;-72
2021/12/28 05:38:38;;;;;;;38.70;15.93;;;10.60;99.90;;;10.62;100.00;99021.47;5113733;28;20077;-71
2021/12/28 05:41:07;;;;;;;;;;;10.60;99.90;;;10.49;100.00;98972.56;5114640;28;20091;-72
2021/12/28 05:43:36;;;;;;;37.65;16.55;;;10.60;99.90;;;10.66;100.00;98999.28;5114437;28;20357;-72
2021/12/28 05:46:05;;;;;;;36.30;16.92;;;10.60;99.90;;;10.74;100.00;98999.03;5095610;28;20052;-72
2021/12/28 05:48:33;;;;;;;30.65;16.83;;;10.70;99.90;;;10.68;100.00;98996.59;5096323;28;20043;-72
2021/12/28 05:51:02;;;;;;;39.75;17.85;;;10.70;99.90;;;10.68;100.00;98980.72;5114234;28;20039;-71
2021/12/28 05:53:30;;;;;;;31.20;15.20;;;10.60;99.90;;;10.67;100.00;98995.72;5114267;28;20142;-71
2021/12/28 05:56:00;;;;;;;31.75;15.25;;;10.60;99.90;;;10.62;100.00;98976.53;5114074;28;20122;-72
2021/12/28 05:58:29;;;;;;;27.25;14.07;;;10.60;99.90;;;10.71;100.00;98980.59;5113723;28;20501;-72
2021/12/28 06:00:58;;;;;;;26.90;14.10;;;10.70;99.90;;;10.74;100.00;98984.00;5114337;28;20048;-71
2021/12/28 06:03:26;;;;;;;25.73;13.52;;;10.70;99.90;;;10.55;100.00;98947.72;5114225;28;20123;-71
2021/12/28 06:05:55;;;;;;;26.83;12.80;;;10.60;99.90;;;10.69;100.00;98969.22;5114169;28;20039;-71
2021/12/28 06:08:24;;;;;;;22.52;14.13;;;10.60;99.90;;;10.67;100.00;98948.13;5114089;28;20043;-72
2021/12/28 06:11:02;;;;;;;26.17;14.68;;;10.60;99.90;;;10.57;100.00;98932.63;5114255;28;20036;-71
2021/12/28 06:13:31;;;;;;;30.52;15.88;;;10.70;99.90;;;10.77;100.00;98956.59;5113812;28;20036;-71
2021/12/28 06:16:00;;;;;;;28.52;15.30;;;10.70;99.90;;;10.80;100.00;98949.41;5113624;28;20485;-72
2021/12/28 06:18:28;;;;;;;27.80;15.65;;;10.80;99.90;;;10.81;100.00;98958.22;5113245;28;20108;-70
2021/12/28 06:20:57;;;;;;;28.52;15.60;;;10.80;99.90;;;10.85;100.00;98957.19;5113533;28;20118;-70
2021/12/28 06:23:26;;;;;;;28.25;14.60;;;10.80;99.90;;;10.84;100.00;98953.66;5095086;28;20051;-71
2021/12/28 06:25:54;;;;;;;27.45;15.60;;;10.90;99.90;;;10.93;100.00;98943.69;5113090;28;20162;-71
2021/12/28 06:28:24;;;;;;;30.75;16.05;;;10.90;99.90;;;10.92;100.00;98950.75;5095014;28;20550;-71
2021/12/28 06:30:53;;;;;;;25.00;13.82;;;10.90;99.90;;;10.87;100.00;98955.34;5113527;28;20135;-71
2021/12/28 06:33:26;;;;;;;28.88;15.38;;;10.90;99.90;;;10.89;100.00;98929.72;5113874;28;20043;-72
2021/12/28 06:35:55;;;;;;;25.90;15.98;;;10.90;99.90;;;10.99;100.00;98948.75;5113436;28;20054;-71
2021/12/28 06:38:23;;;;;;;22.02;15.43;;;11.00;99.90;;;10.94;100.00;98951.56;5113267;28;20101;-70
2021/12/28 06:40:52;;;;;;;25.15;15.50;;;10.90;99.90;;;10.93;100.00;98947.19;5113555;28;20036;-71
2021/12/28 06:43:21;;;;;;;24.95;14.18;;;10.90;99.90;;;10.89;100.00;98938.50;5113473;28;20076;-71
2021/12/28 06:45:51;;;;;;;24.88;15.77;;;10.90;99.90;;;10.99;100.00;98936.41;5112854;28;20045;-71
2021/12/28 06:48:20;;;;;;;23.55;15.57;;;11.00;99.90;;;11.13;100.00;98930.59;5112523;28;20046;-71
2021/12/28 06:50:49;;;;;;;29.08;16.00;;;11.00;99.90;;;11.13;100.00;98931.41;5112098;28;20127;-71
2021/12/28 06:53:18;;;;;;;28.20;16.25;;;11.00;99.90;;;11.05;100.00;98916.78;5112802;28;20108;-71
2021/12/28 06:55:46;;;;;;;25.08;16.63;;;11.10;99.90;;;11.20;100.00;98932.06;5112924;28;20039;-71
2021/12/28 06:58:15;;;;;;;26.52;15.65;;;11.10;99.90;;;11.20;100.00;98934.72;5112321;28;20040;-72
2021/12/28 07:00:43;;;;;;;25.38;15.65;;;11.10;99.90;;;11.14;100.00;98930.53;5112660;28;20044;-75
2021/12/28 07:03:13;;;;;;;22.15;17.08;;;11.10;99.90;;;11.21;100.00;98928.47;5112611;28;20126;-73
2021/12/28 07:05:42;;;;;;;22.17;16.00;;;11.10;99.90;;;11.16;100.00;98911.94;5112983;28;20057;-73
2021/12/28 07:08:10;;;;;;;26.25;16.88;;;11.10;99.90;;;11.17;100.00;98893.34;5112488;28;20774;-73
2021/12/28 07:10:39;;;;;;;28.08;16.00;;;11.10;99.90;;;11.12;100.00;98918.25;5094109;28;20048;-74
2021/12/28 07:13:07;;;;;;;26.63;15.75;;;11.10;99.90;;;11.06;100.00;98899.97;5112289;28;20071;-72
2021/12/28 07:15:36;;;;;;;19.42;14.02;;;11.10;99.90;;;11.11;100.00;98913.91;5112528;28;20100;-72
2021/12/28 07:18:05;;;;;;;23.52;15.48;;;11.00;99.90;;;11.09;100.00;98921.03;5094342;28;20130;-73
2021/12/28 07:20:35;;;;;;;22.75;15.02;;;11.10;99.90;;;11.15;100.00;98910.22;5112189;28;20057;-70
2021/12/28 07:23:04;;;;;;;26.30;16.43;;;11.10;99.90;;;11.11;100.00;98906.81;5112184;28;20066;-70
2021/12/28 07:25:32;;;;;;;26.77;17.90;;;11.10;99.90;;;11.19;100.00;98925.91;5112499;28;20036;-73
2021/12/28 07:28:01;;;;;;;22.38;17.50;;;11.10;99.90;;;11.23;100.00;98909.00;5112668;28;20044;-73
2021/12/28 07:30:29;;;;;;;29.50;18.95;;;11.20;99.90;;;11.14;100.00;98919.94;5112902;28;20154;-72
2021/12/28 07:32:58;;;;;;;23.10;18.23;;;11.20;99.90;;;11.20;100.00;98916.19;5112488;28;20090;-80
2021/12/28 07:35:26;;;;;;;30.25;19.27;;;11.10;99.90;;;11.14;100.00;98912.00;5112237;28;20123;-73
2021/12/28 07:37:56;;;;;;;26.40;19.20;;;11.10;99.90;;;11.19;100.00;98907.38;5112183;28;20768;-81
2021/12/28 07:40:24;;;;;;;27.07;18.00;;;11.10;99.90;;;11.11;100.00;98888.28;5093902;28;20443;-77
2021/12/28 07:42:53;;;;;;;27.90;17.15;;;11.10;99.90;;;11.12;100.00;98911.19;5112020;28;20695;-71
2021/12/28 07:45:22;;;;;;;24.50;17.92;;;11.10;99.90;;;10.55;100.00;98786.50;5111795;28;20048;-70
2021/12/28 07:47:51;;;;;;;22.95;17.08;;;11.10;99.90;;;11.22;100.00;98890.53;5111800;28;20396;-71
2021/12/28 07:50:21;;;;;;;21.27;15.02;;;11.10;99.90;;;11.16;100.00;98896.06;5112094;28;20420;-71
2021/12/28 07:52:52;;;;;;;19.17;14.43;;;11.10;99.90;;;11.21;100.00;98902.91;5093828;28;20047;-72
2021/12/28 07:55:22;;;;;;;20.23;15.20;;;11.10;99.90;;;11.07;100.00;98875.25;5112329;28;20078;-70
2021/12/28 07:57:50;;;;;;;23.60;15.02;;;11.10;99.90;;;11.25;100.00;98901.00;5112440;28;20070;-73
2021/12/28 08:00:22;;;;;;;21.38;15.68;;;11.20;99.90;;;11.29;100.00;98890.22;5112732;28;20103;-74
2021/12/28 08:02:51;;;;;;;20.33;14.95;;;11.20;99.90;;;11.35;100.00;98892.66;5116787;28;20047;-73
2021/12/28 08:05:20;;;;;;;23.05;15.60;;;11.20;99.90;;;11.26;100.00;98877.13;5115708;28;20141;-72
2021/12/28 08:07:49;;;;;;;19.90;15.65;;;11.20;99.90;;;11.20;100.00;98874.72;5115701;28;20066;-72
2021/12/28 08:10:18;;;;;;;20.60;15.43;;;11.20;99.90;;;11.20;100.00;98877.38;5116068;28;20043;-72
2021/12/28 08:12:49;;;;;;;27.85;17.95;;;11.10;99.90;;;11.24;100.00;98892.22;5115974;28;20051;-73
2021/12/28 08:15:18;;;;;;;26.92;17.30;;;11.20;99.90;;;11.23;100.00;98871.94;5115441;28;20044;-72
2021/12/28 08:17:46;;;;;;;22.70;17.15;;;11.10;99.90;;;11.20;100.00;98900.31;5115580;28;20441;-73
2021/12/28 08:20:17;;;;;;;25.90;18.27;;;11.20;99.90;;;11.16;100.00;98893.41;5115861;28;20043;-72
2021/12/28 08:22:50;;;;;;;19.48;16.17;;;11.10;99.90;;;11.23;100.00;98884.31;5115575;28;20043;-72
2021/12/28 08:25:21;;;;;;;19.83;14.52;;;11.10;99.90;;;11.27;100.00;98900.03;5115642;28;20450;-72
2021/12/28 08:27:51;;;;;;;;;;;11.20;99.90;;;11.24;100.00;98888.69;5115614;28;20081;-72
2021/12/28 08:30:21;;;;;;;22.10;15.07;;;11.20;99.90;;;11.20;100.00;98880.03;5115482;28;19931;-72
2021/12/28 08:32:50;;;;;;;20.05;15.13;;;11.10;99.90;;;11.26;100.00;98895.66;5097052;28;20055;-72
2021/12/28 08:35:19;;;;;;;16.83;14.10;;;11.20;99.90;;;11.21;100.00;98881.72;5115099;28;20079;-71
2021/12/28 08:37:48;;;;;;;17.25;14.77;;;11.20;99.90;;;11.25;100.00;98871.88;5114928;28;20462;-74
2021/12/28 08:40:20;;;;;;;17.25;14.77;;;11.10;99.90;;;11.27;100.00;98868.25;5115061;28;20093;-74
2021/12/28 08:42:49;;;;;;;22.92;15.68;;;11.20;99.90;;;11.14;100.00;98872.31;5115058;28;20049;-74
2021/12/28 08:45:19;;;;;;;21.35;15.48;;;11.10;99.90;;;11.14;100.00;98861.72;5096779;28;20143;-74
2021/12/28 08:47:50;;;;;;;21.08;16.40;;;11.10;99.90;;;11.23;100.00;98869.31;5115014;28;20109;-70
2021/12/28 08:50:20;;;;;;;22.38;14.68;;;11.10;99.90;;;11.19;100.00;98850.97;5115478;28;20047;-72
2021/12/28 08:52:50;;;;;;;19.42;15.02;;;11.20;99.90;;;11.25;100.00;98848.94;5115110;28;20079;-71
2021/12/28 08:55:21;;;;;;;17.05;14.07;;;11.20;99.90;;;11.26;100.00;98863.03;5114758;28;20055;-71
2021/12/28 08:57:51;;;;;;;18.13;14.95;;;11.20;99.90;;;11.29;100.00;98853.19;5114646;28;20059;-72
2021/12/28 09:00:25;;;;;;;18.80;15.77;;;11.20;99.90;;;11.25;100.00;98840.13;5114550;28;20048;-72
2021/12/28 09:02:56;;;;;;;16.38;14.40;;;11.20;99.90;;;11.41;100.00;98843.91;5114765;28;20112;-72
2021/12/28 09:05:26;;;;;;;20.15;15.02;;;11.30;99.90;;;11.32;100.00;98837.19;5096447;28;20105;-72
2021/12/28 09:07:56;;;;;;;16.42;14.68;;;11.30;99.90;;;11.44;100.00;98860.50;5096717;28;20059;-71
2021/12/28 09:10:26;;;;;;;16.27;14.05;;;11.30;99.90;;;11.26;100.00;98815.41;5114827;28;20116;-71
2021/12/28 09:12:55;;;;;;;19.75;13.05;;;11.30;99.90;;;11.31;100.00;98830.16;5113718;28;20069;-72
2021/12/28 09:15:25;;;;;;;20.50;13.77;;;11.30;99.90;;;11.38;100.00;98809.63;5114607;28;20035;-72
2021/12/28 09:17:54;;;;;;;15.52;12.32;;;11.40;99.90;;;11.40;100.00;98844.84;5114614;28;20039;-72
2021/12/28 09:20:26;;;;;;;15.50;13.30;;;11.30;99.90;;;11.38;100.00;98831.63;5114853;28;20047;-72
2021/12/28 09:23:08;;;;;;;16.20;11.93;;;11.30;99.90;;;11.49;100.00;98812.69;5114345;28;20315;-71
2021/12/28 09:25:37;;;;;;;14.48;11.75;;;11.40;99.90;;;11.50;100.00;98817.03;5114355;28;20326;-71
2021/12/28 09:28:08;;;;;;;15.23;12.35;;;11.40;99.90;;;11.48;100.00;98838.28;5114600;28;20086;-73
2021/12/28 09:30:40;;;;;;;14.52;12.15;;;11.40;99.90;;;11.46;100.00;98803.06;5114001;28;20118;-71
2021/12/28 09:33:09;;;;;;;17.92;13.40;;;11.40;99.90;;;11.46;100.00;98813.66;5114299;28;20240;-72
2021/12/28 09:35:38;;;;;;;14.05;12.32;;;11.40;99.90;;;11.47;100.00;98831.28;5114523;28;20445;-72
2021/12/28 09:38:07;;;;;;;15.75;12.48;;;11.40;99.90;;;11.40;100.00;98821.00;5114033;28;20040;-72
2021/12/28 09:40:36;;;;;;;12.60;11.30;;;11.30;99.90;;;11.41;100.00;98802.41;5112740;28;20055;-72
2021/12/28 09:43:07;;;;;;;14.77;12.02;;;11.40;99.90;;;11.45;100.00;98805.78;5114161;28;20045;-72
2021/12/28 09:45:38;;;;;;;13.70;11.00;;;11.40;99.90;;;11.46;100.00;98803.06;5113585;28;20395;-72
2021/12/28 09:48:07;;;;;;;11.80;10.43;;;11.40;99.90;;;11.53;100.00;98809.88;5113774;28;20047;-72
2021/12/28 09:50:39;;;;;;;11.25;9.32;;;11.40;99.90;;;11.46;100.00;98800.44;5113424;28;20051;-72
2021/12/28 09:53:09;;;;;;;10.68;9.45;;;11.40;99.90;;;11.51;100.00;98793.19;5113528;28;20078;-72
2021/12/28 09:55:38;;;;;;;;;;;11.40;99.90;;;11.49;100.00;98808.25;5113978;28;20035;-72
2021/12/28 09:58:07;;;;;;;10.90;9.80;;;11.40;99.90;;;11.54;100.00;98798.34;5113454;28;19942;-72
2021/12/28 10:00:57;;;;;;;10.23;9.18;;;11.40;99.90;;;11.61;100.00;98804.25;5113433;28;20039;-73
2021/12/28 10:03:25;;;;;;;13.20;8.70;;;11.40;99.90;;;11.50;100.00;98791.44;5113699;28;20043;-73
2021/12/28 10:05:54;;;;;;;11.82;8.27;;;11.40;99.90;;;11.47;100.00;98801.31;5113522;28;20126;-72
2021/12/28 10:08:25;;;;;;;8.40;7.55;;;11.40;99.90;;;11.50;100.00;98803.81;5113239;28;20039;-72
2021/12/28 10:10:58;;;;;;;9.23;6.88;;;11.40;99.90;;;11.40;100.00;98782.16;5113549;28;20067;-72
2021/12/28 10:13:33;;;;;;;7.35;6.57;;;11.30;99.90;;;11.54;100.00;98785.09;5113562;28;20134;-72
2021/12/28 10:16:03;;;;;;;8.43;7.68;;;11.40;99.90;;;10.93;100.00;98665.97;5113100;28;20048;-72